sensor_id;sensor_type;location;lat;lon;timestamp;temperature;humidity
64689;DHT22;62504;46.070;14.492;2023-08-20T00:01:21;23.40;99.90
64689;DHT22;62504;46.070;14.492;2023-08-20T00:03:49;23.40;99.90
64689;DHT22;62504;46.070;14.492;2023-08-20T00:06:15;23.40;99.90
64689;DHT22;62504;46.070;14.492;2023-08-20T00:08:41;23.40;99.90
64689;DHT22;62504;46.070;14.492;2023-08-20T00:11:06;23.40;99.90
64689;DHT22;62504;46.070;14.492;2023-08-20T00:13:32;23.40;99.90
64689;DHT22;62504;46.070;14.492;2023-08-20T00:15:58;23.50;99.90
64689;DHT22;62504;46.070;14.492;2023-08-20T00:18:24;23.50;99.90
64689;DHT22;62504;46.070;14.492;2023-08-20T00:20:50;23.50;99.90
64689;DHT22;62504;46.070;14.492;2023-08-20T00:23:16;23.50;99.90
64689;DHT22;62504;46.070;14.492;2023-08-20T00:25:43;23.40;99.90
64689;DHT22;62504;46.070;14.492;2023-08-20T00:28:09;23.30;99.90
64689;DHT22;62504;46.070;14.492;2023-08-20T00:30:35;23.20;99.90
64689;DHT22;62504;46.070;14.492;2023-08-20T00:33:01;23.10;99.90
64689;DHT22;62504;46.070;14.492;2023-08-20T00:35:26;23.00;99.90
64689;DHT22;62504;46.070;14.492;2023-08-20T00:37:52;23.00;99.90
64689;DHT22;62504;46.070;14.492;2023-08-20T00:40:18;23.10;99.90
64689;DHT22;62504;46.070;14.492;2023-08-20T00:42:44;23.10;99.90
64689;DHT22;62504;46.070;14.492;2023-08-20T00:45:09;23.10;99.90
64689;DHT22;62504;46.070;14.492;2023-08-20T00:47:35;23.00;99.90
64689;DHT22;62504;46.070;14.492;2023-08-20T00:50:02;22.90;99.90
64689;DHT22;62504;46.070;14.492;2023-08-20T00:52:34;23.00;99.90
64689;DHT22;62504;46.070;14.492;2023-08-20T00:55:01;22.80;99.90
64689;DHT22;62504;46.070;14.492;2023-08-20T00:57:32;22.80;99.90
64689;DHT22;62504;46.070;14.492;2023-08-20T00:59:58;22.60;99.90
64689;DHT22;62504;46.070;14.492;2023-08-20T01:02:23;22.60;99.90
64689;DHT22;62504;46.070;14.492;2023-08-20T01:04:50;22.60;99.90
64689;DHT22;62504;46.070;14.492;2023-08-20T01:09:55;22.60;99.90
64689;DHT22;62504;46.070;14.492;2023-08-20T01:12:24;22.60;99.90
64689;DHT22;62504;46.070;14.492;2023-08-20T01:14:51;22.60;99.90
64689;DHT22;62504;46.070;14.492;2023-08-20T01:17:17;22.60;99.90
64689;DHT22;62504;46.070;14.492;2023-08-20T01:19:42;22.60;99.90
64689;DHT22;62504;46.070;14.492;2023-08-20T01:30:15;22.50;99.90
64689;DHT22;62504;46.070;14.492;2023-08-20T01:32:43;22.40;99.90
64689;DHT22;62504;46.070;14.492;2023-08-20T01:35:16;22.30;99.90
64689;DHT22;62504;46.070;14.492;2023-08-20T01:37:43;22.30;99.90
64689;DHT22;62504;46.070;14.492;2023-08-20T01:40:09;22.30;99.90
64689;DHT22;62504;46.070;14.492;2023-08-20T01:42:39;22.40;99.90
64689;DHT22;62504;46.070;14.492;2023-08-20T01:45:06;22.40;99.90
64689;DHT22;62504;46.070;14.492;2023-08-20T01:47:35;22.30;99.90
64689;DHT22;62504;46.070;14.492;2023-08-20T01:50:01;22.40;99.90
64689;DHT22;62504;46.070;14.492;2023-08-20T01:52:27;22.40;99.90
64689;DHT22;62504;46.070;14.492;2023-08-20T01:54:54;22.40;99.90
64689;DHT22;62504;46.070;14.492;2023-08-20T01:57:20;22.40;99.90
64689;DHT22;62504;46.070;14.492;2023-08-20T01:59:47;22.40;99.90
64689;DHT22;62504;46.070;14.492;2023-08-20T02:02:13;22.40;99.90
64689;DHT22;62504;46.070;14.492;2023-08-20T02:04:38;22.30;99.90
64689;DHT22;62504;46.070;14.492;2023-08-20T02:07:04;22.20;99.90
64689;DHT22;62504;46.070;14.492;2023-08-20T02:09:30;22.20;99.90
64689;DHT22;62504;46.070;14.492;2023-08-20T02:11:55;22.20;99.90
64689;DHT22;62504;46.070;14.492;2023-08-20T02:14:21;22.30;99.90
64689;DHT22;62504;46.070;14.492;2023-08-20T02:16:47;22.30;99.90
64689;DHT22;62504;46.070;14.492;2023-08-20T02:19:13;22.30;99.90
64689;DHT22;62504;46.070;14.492;2023-08-20T02:21:39;22.30;99.90
64689;DHT22;62504;46.070;14.492;2023-08-20T02:24:06;22.20;99.90
64689;DHT22;62504;46.070;14.492;2023-08-20T02:26:31;22.20;99.90
64689;DHT22;62504;46.070;14.492;2023-08-20T02:28:57;22.20;99.90
64689;DHT22;62504;46.070;14.492;2023-08-20T02:31:23;22.20;99.90
64689;DHT22;62504;46.070;14.492;2023-08-20T02:33:49;22.30;99.90
64689;DHT22;62504;46.070;14.492;2023-08-20T02:36:14;22.30;99.90
64689;DHT22;62504;46.070;14.492;2023-08-20T02:38:40;22.20;99.90
64689;DHT22;62504;46.070;14.492;2023-08-20T02:41:06;22.10;99.90
64689;DHT22;62504;46.070;14.492;2023-08-20T02:43:32;22.10;99.90
64689;DHT22;62504;46.070;14.492;2023-08-20T02:45:57;22.00;99.90
64689;DHT22;62504;46.070;14.492;2023-08-20T02:48:23;22.00;99.90
64689;DHT22;62504;46.070;14.492;2023-08-20T02:50:53;22.00;99.90
64689;DHT22;62504;46.070;14.492;2023-08-20T02:53:20;22.00;99.90
64689;DHT22;62504;46.070;14.492;2023-08-20T02:55:46;22.00;99.90
64689;DHT22;62504;46.070;14.492;2023-08-20T02:58:11;22.00;99.90
64689;DHT22;62504;46.070;14.492;2023-08-20T03:00:37;22.00;99.90
64689;DHT22;62504;46.070;14.492;2023-08-20T03:03:03;22.00;99.90
64689;DHT22;62504;46.070;14.492;2023-08-20T03:05:33;22.00;99.90
64689;DHT22;62504;46.070;14.492;2023-08-20T03:07:59;22.00;99.90
64689;DHT22;62504;46.070;14.492;2023-08-20T03:10:25;21.90;99.90
64689;DHT22;62504;46.070;14.492;2023-08-20T03:12:51;21.80;99.90
64689;DHT22;62504;46.070;14.492;2023-08-20T03:15:17;21.70;99.90
64689;DHT22;62504;46.070;14.492;2023-08-20T03:17:42;21.70;99.90
64689;DHT22;62504;46.070;14.492;2023-08-20T03:20:08;21.80;99.90
64689;DHT22;62504;46.070;14.492;2023-08-20T03:22:36;21.80;99.90
64689;DHT22;62504;46.070;14.492;2023-08-20T03:25:03;21.90;99.90
64689;DHT22;62504;46.070;14.492;2023-08-20T03:27:28;22.00;99.90
64689;DHT22;62504;46.070;14.492;2023-08-20T03:29:54;21.90;99.90
64689;DHT22;62504;46.070;14.492;2023-08-20T03:32:20;21.90;99.90
64689;DHT22;62504;46.070;14.492;2023-08-20T03:34:45;21.90;99.90
64689;DHT22;62504;46.070;14.492;2023-08-20T03:37:12;21.90;99.90
64689;DHT22;62504;46.070;14.492;2023-08-20T03:39:37;21.90;99.90
64689;DHT22;62504;46.070;14.492;2023-08-20T03:42:03;21.80;99.90
64689;DHT22;62504;46.070;14.492;2023-08-20T03:44:30;21.90;99.90
64689;DHT22;62504;46.070;14.492;2023-08-20T03:46:56;21.90;99.90
64689;DHT22;62504;46.070;14.492;2023-08-20T03:49:22;21.80;99.90
64689;DHT22;62504;46.070;14.492;2023-08-20T03:51:47;21.80;99.90
64689;DHT22;62504;46.070;14.492;2023-08-20T03:54:13;21.70;99.90
64689;DHT22;62504;46.070;14.492;2023-08-20T03:56:39;21.70;99.90
64689;DHT22;62504;46.070;14.492;2023-08-20T03:59:05;21.60;99.90
64689;DHT22;62504;46.070;14.492;2023-08-20T04:01:31;21.60;99.90
64689;DHT22;62504;46.070;14.492;2023-08-20T04:03:57;21.70;99.90
64689;DHT22;62504;46.070;14.492;2023-08-20T04:06:22;21.70;99.90
64689;DHT22;62504;46.070;14.492;2023-08-20T04:08:48;21.70;99.90
64689;DHT22;62504;46.070;14.492;2023-08-20T04:11:14;21.80;99.90
64689;DHT22;62504;46.070;14.492;2023-08-20T04:13:40;21.90;99.90
64689;DHT22;62504;46.070;14.492;2023-08-20T04:16:08;21.90;99.90
64689;DHT22;62504;46.070;14.492;2023-08-20T04:18:34;21.80;99.90
64689;DHT22;62504;46.070;14.492;2023-08-20T04:20:59;21.80;99.90
64689;DHT22;62504;46.070;14.492;2023-08-20T04:23:25;21.80;99.90
64689;DHT22;62504;46.070;14.492;2023-08-20T04:25:51;21.90;99.90
64689;DHT22;62504;46.070;14.492;2023-08-20T04:28:16;21.80;99.90
64689;DHT22;62504;46.070;14.492;2023-08-20T04:30:42;21.70;99.90
64689;DHT22;62504;46.070;14.492;2023-08-20T04:33:09;21.70;99.90
64689;DHT22;62504;46.070;14.492;2023-08-20T04:35:34;21.80;99.90
64689;DHT22;62504;46.070;14.492;2023-08-20T04:38:00;21.80;99.90
64689;DHT22;62504;46.070;14.492;2023-08-20T04:40:26;21.70;99.90
64689;DHT22;62504;46.070;14.492;2023-08-20T04:42:51;21.70;99.90
64689;DHT22;62504;46.070;14.492;2023-08-20T04:45:17;21.80;99.90
64689;DHT22;62504;46.070;14.492;2023-08-20T04:47:47;21.70;99.90
64689;DHT22;62504;46.070;14.492;2023-08-20T04:50:13;21.60;99.90
64689;DHT22;62504;46.070;14.492;2023-08-20T04:52:39;21.60;99.90
64689;DHT22;62504;46.070;14.492;2023-08-20T04:55:05;21.60;99.90
64689;DHT22;62504;46.070;14.492;2023-08-20T04:57:32;21.60;99.90
64689;DHT22;62504;46.070;14.492;2023-08-20T04:59:58;21.70;99.90
64689;DHT22;62504;46.070;14.492;2023-08-20T05:02:24;21.70;99.90
64689;DHT22;62504;46.070;14.492;2023-08-20T05:04:50;21.80;99.90
64689;DHT22;62504;46.070;14.492;2023-08-20T05:07:16;21.90;99.90
64689;DHT22;62504;46.070;14.492;2023-08-20T05:09:41;21.90;99.90
64689;DHT22;62504;46.070;14.492;2023-08-20T05:12:07;22.00;99.90
64689;DHT22;62504;46.070;14.492;2023-08-20T05:14:33;22.00;99.90
64689;DHT22;62504;46.070;14.492;2023-08-20T05:16:58;22.00;99.90
64689;DHT22;62504;46.070;14.492;2023-08-20T05:19:24;22.00;99.90
64689;DHT22;62504;46.070;14.492;2023-08-20T05:21:50;22.00;99.90
64689;DHT22;62504;46.070;14.492;2023-08-20T05:24:17;22.00;99.90
64689;DHT22;62504;46.070;14.492;2023-08-20T05:26:42;22.00;99.90
64689;DHT22;62504;46.070;14.492;2023-08-20T05:29:08;22.10;99.90
64689;DHT22;62504;46.070;14.492;2023-08-20T05:31:34;22.10;99.90
64689;DHT22;62504;46.070;14.492;2023-08-20T05:33:59;22.20;99.90
64689;DHT22;62504;46.070;14.492;2023-08-20T05:36:25;22.10;99.90
64689;DHT22;62504;46.070;14.492;2023-08-20T05:38:51;22.10;99.90
64689;DHT22;62504;46.070;14.492;2023-08-20T05:41:16;22.20;99.90
64689;DHT22;62504;46.070;14.492;2023-08-20T05:43:42;22.20;99.90
64689;DHT22;62504;46.070;14.492;2023-08-20T05:46:07;22.20;99.90
64689;DHT22;62504;46.070;14.492;2023-08-20T05:48:33;22.20;99.90
64689;DHT22;62504;46.070;14.492;2023-08-20T05:50:59;22.20;99.90
64689;DHT22;62504;46.070;14.492;2023-08-20T05:53:25;22.20;99.90
64689;DHT22;62504;46.070;14.492;2023-08-20T05:55:50;22.20;99.90
64689;DHT22;62504;46.070;14.492;2023-08-20T05:58:16;22.30;99.90
64689;DHT22;62504;46.070;14.492;2023-08-20T06:00:41;22.30;99.90
64689;DHT22;62504;46.070;14.492;2023-08-20T06:03:07;22.40;99.90
64689;DHT22;62504;46.070;14.492;2023-08-20T06:05:36;22.40;99.90
64689;DHT22;62504;46.070;14.492;2023-08-20T06:08:02;22.40;99.90
64689;DHT22;62504;46.070;14.492;2023-08-20T06:10:27;22.40;99.90
64689;DHT22;62504;46.070;14.492;2023-08-20T06:12:53;22.50;99.90
64689;DHT22;62504;46.070;14.492;2023-08-20T06:15:19;22.60;99.90
64689;DHT22;62504;46.070;14.492;2023-08-20T06:17:45;22.70;99.90
64689;DHT22;62504;46.070;14.492;2023-08-20T06:20:10;22.80;99.90
64689;DHT22;62504;46.070;14.492;2023-08-20T06:22:37;22.80;99.90
64689;DHT22;62504;46.070;14.492;2023-08-20T06:25:04;22.90;99.90
64689;DHT22;62504;46.070;14.492;2023-08-20T06:27:30;22.90;99.90
64689;DHT22;62504;46.070;14.492;2023-08-20T06:29:56;23.10;99.90
64689;DHT22;62504;46.070;14.492;2023-08-20T06:32:22;23.00;99.90
64689;DHT22;62504;46.070;14.492;2023-08-20T06:34:48;23.10;99.90
64689;DHT22;62504;46.070;14.492;2023-08-20T06:37:13;23.10;99.90
64689;DHT22;62504;46.070;14.492;2023-08-20T06:39:39;23.00;99.90
64689;DHT22;62504;46.070;14.492;2023-08-20T06:42:05;23.20;99.90
64689;DHT22;62504;46.070;14.492;2023-08-20T06:44:30;23.30;99.90
64689;DHT22;62504;46.070;14.492;2023-08-20T06:46:56;23.40;99.90
64689;DHT22;62504;46.070;14.492;2023-08-20T06:49:22;23.60;99.90
64689;DHT22;62504;46.070;14.492;2023-08-20T06:51:47;23.60;99.90
64689;DHT22;62504;46.070;14.492;2023-08-20T06:54:14;23.80;99.90
64689;DHT22;62504;46.070;14.492;2023-08-20T06:56:41;23.80;99.90
64689;DHT22;62504;46.070;14.492;2023-08-20T06:59:06;23.80;99.90
64689;DHT22;62504;46.070;14.492;2023-08-20T07:01:32;23.90;99.90
64689;DHT22;62504;46.070;14.492;2023-08-20T07:03:58;23.80;99.90
64689;DHT22;62504;46.070;14.492;2023-08-20T07:06:24;23.80;99.90
64689;DHT22;62504;46.070;14.492;2023-08-20T07:08:50;23.90;99.90
64689;DHT22;62504;46.070;14.492;2023-08-20T07:11:15;24.10;99.90
64689;DHT22;62504;46.070;14.492;2023-08-20T07:13:41;24.20;99.90
64689;DHT22;62504;46.070;14.492;2023-08-20T07:16:07;24.30;99.90
64689;DHT22;62504;46.070;14.492;2023-08-20T07:18:32;24.50;99.90
64689;DHT22;62504;46.070;14.492;2023-08-20T07:20:58;24.60;99.90
64689;DHT22;62504;46.070;14.492;2023-08-20T07:23:24;24.90;99.90
64689;DHT22;62504;46.070;14.492;2023-08-20T07:25:50;25.10;99.90
64689;DHT22;62504;46.070;14.492;2023-08-20T07:28:17;25.20;99.90
64689;DHT22;62504;46.070;14.492;2023-08-20T07:30:52;25.30;99.90
64689;DHT22;62504;46.070;14.492;2023-08-20T07:33:18;25.30;99.90
64689;DHT22;62504;46.070;14.492;2023-08-20T07:35:43;25.30;99.90
64689;DHT22;62504;46.070;14.492;2023-08-20T07:38:09;25.40;99.90
64689;DHT22;62504;46.070;14.492;2023-08-20T07:40:35;25.60;99.90
64689;DHT22;62504;46.070;14.492;2023-08-20T07:43:01;25.60;99.90
64689;DHT22;62504;46.070;14.492;2023-08-20T07:45:27;25.60;99.90
64689;DHT22;62504;46.070;14.492;2023-08-20T07:47:53;25.60;99.90
64689;DHT22;62504;46.070;14.492;2023-08-20T07:50:19;25.70;99.90
64689;DHT22;62504;46.070;14.492;2023-08-20T07:52:44;25.60;99.90
64689;DHT22;62504;46.070;14.492;2023-08-20T07:55:10;25.60;99.90
64689;DHT22;62504;46.070;14.492;2023-08-20T07:57:35;25.60;99.90
64689;DHT22;62504;46.070;14.492;2023-08-20T08:00:03;25.60;99.90
64689;DHT22;62504;46.070;14.492;2023-08-20T08:02:30;25.60;99.90
64689;DHT22;62504;46.070;14.492;2023-08-20T08:04:55;25.80;99.90
64689;DHT22;62504;46.070;14.492;2023-08-20T08:07:21;25.90;99.90
64689;DHT22;62504;46.070;14.492;2023-08-20T08:09:47;26.00;99.90
64689;DHT22;62504;46.070;14.492;2023-08-20T08:12:12;26.10;99.90
64689;DHT22;62504;46.070;14.492;2023-08-20T08:14:38;26.20;99.90
64689;DHT22;62504;46.070;14.492;2023-08-20T08:17:03;26.10;99.90
64689;DHT22;62504;46.070;14.492;2023-08-20T08:19:30;26.30;99.90
64689;DHT22;62504;46.070;14.492;2023-08-20T08:21:56;26.40;99.90
64689;DHT22;62504;46.070;14.492;2023-08-20T08:24:22;26.40;99.90
64689;DHT22;62504;46.070;14.492;2023-08-20T08:26:47;26.50;99.90
64689;DHT22;62504;46.070;14.492;2023-08-20T08:29:13;26.50;99.90
64689;DHT22;62504;46.070;14.492;2023-08-20T08:31:39;26.50;99.90
64689;DHT22;62504;46.070;14.492;2023-08-20T08:34:06;26.60;99.90
64689;DHT22;62504;46.070;14.492;2023-08-20T08:36:31;26.60;99.90
64689;DHT22;62504;46.070;14.492;2023-08-20T08:38:57;26.40;99.90
64689;DHT22;62504;46.070;14.492;2023-08-20T08:41:23;26.20;99.90
64689;DHT22;62504;46.070;14.492;2023-08-20T08:43:51;26.10;99.90
64689;DHT22;62504;46.070;14.492;2023-08-20T08:46:17;26.20;99.90
64689;DHT22;62504;46.070;14.492;2023-08-20T08:48:45;26.20;99.90
64689;DHT22;62504;46.070;14.492;2023-08-20T08:51:12;26.40;99.90
64689;DHT22;62504;46.070;14.492;2023-08-20T08:53:38;26.40;99.90
64689;DHT22;62504;46.070;14.492;2023-08-20T08:56:04;26.50;99.90
64689;DHT22;62504;46.070;14.492;2023-08-20T08:58:33;26.50;99.90
64689;DHT22;62504;46.070;14.492;2023-08-20T09:00:59;26.50;99.90
64689;DHT22;62504;46.070;14.492;2023-08-20T09:03:25;26.60;99.90
64689;DHT22;62504;46.070;14.492;2023-08-20T09:05:56;26.60;99.90
64689;DHT22;62504;46.070;14.492;2023-08-20T09:08:32;26.60;99.90
64689;DHT22;62504;46.070;14.492;2023-08-20T09:11:00;26.70;99.90
64689;DHT22;62504;46.070;14.492;2023-08-20T09:13:36;26.70;99.90
64689;DHT22;62504;46.070;14.492;2023-08-20T09:16:09;26.70;99.90
64689;DHT22;62504;46.070;14.492;2023-08-20T09:18:44;26.80;99.90
64689;DHT22;62504;46.070;14.492;2023-08-20T09:21:11;26.80;99.90
64689;DHT22;62504;46.070;14.492;2023-08-20T09:23:38;26.90;99.90
64689;DHT22;62504;46.070;14.492;2023-08-20T09:26:05;26.90;99.90
64689;DHT22;62504;46.070;14.492;2023-08-20T09:28:45;27.00;99.90
64689;DHT22;62504;46.070;14.492;2023-08-20T09:31:12;27.10;99.90
64689;DHT22;62504;46.070;14.492;2023-08-20T09:33:52;27.20;99.90
64689;DHT22;62504;46.070;14.492;2023-08-20T09:36:19;27.20;99.90
64689;DHT22;62504;46.070;14.492;2023-08-20T09:38:44;27.30;99.90
64689;DHT22;62504;46.070;14.492;2023-08-20T09:41:12;27.40;99.90
64689;DHT22;62504;46.070;14.492;2023-08-20T09:43:38;27.50;99.90
64689;DHT22;62504;46.070;14.492;2023-08-20T09:46:05;27.40;99.90
64689;DHT22;62504;46.070;14.492;2023-08-20T09:48:34;27.50;99.90
64689;DHT22;62504;46.070;14.492;2023-08-20T09:51:10;27.40;99.90
64689;DHT22;62504;46.070;14.492;2023-08-20T09:53:51;27.50;99.90
64689;DHT22;62504;46.070;14.492;2023-08-20T09:56:27;27.50;99.90
64689;DHT22;62504;46.070;14.492;2023-08-20T09:59:00;27.80;99.90
64689;DHT22;62504;46.070;14.492;2023-08-20T10:01:27;27.90;99.90
64689;DHT22;62504;46.070;14.492;2023-08-20T10:03:53;27.90;99.90
64689;DHT22;62504;46.070;14.492;2023-08-20T10:06:20;27.80;99.90
64689;DHT22;62504;46.070;14.492;2023-08-20T10:08:46;27.80;99.90
64689;DHT22;62504;46.070;14.492;2023-08-20T10:11:12;28.00;99.90
64689;DHT22;62504;46.070;14.492;2023-08-20T10:13:38;28.20;99.90
64689;DHT22;62504;46.070;14.492;2023-08-20T10:16:04;28.00;99.90
64689;DHT22;62504;46.070;14.492;2023-08-20T10:18:30;28.00;99.90
64689;DHT22;62504;46.070;14.492;2023-08-20T10:20:59;28.00;99.90
64689;DHT22;62504;46.070;14.492;2023-08-20T10:23:26;28.10;99.90
64689;DHT22;62504;46.070;14.492;2023-08-20T10:25:52;28.10;99.90
64689;DHT22;62504;46.070;14.492;2023-08-20T10:28:27;28.10;99.90
64689;DHT22;62504;46.070;14.492;2023-08-20T10:31:13;28.10;99.90
64689;DHT22;62504;46.070;14.492;2023-08-20T10:33:49;28.10;99.90
64689;DHT22;62504;46.070;14.492;2023-08-20T10:36:20;28.20;99.90
64689;DHT22;62504;46.070;14.492;2023-08-20T10:38:52;28.00;99.90
64689;DHT22;62504;46.070;14.492;2023-08-20T10:41:29;28.10;99.90
64689;DHT22;62504;46.070;14.492;2023-08-20T10:43:59;28.50;99.90
64689;DHT22;62504;46.070;14.492;2023-08-20T10:46:27;28.40;99.90
64689;DHT22;62504;46.070;14.492;2023-08-20T10:49:01;28.50;99.90
64689;DHT22;62504;46.070;14.492;2023-08-20T10:51:28;28.60;99.90
64689;DHT22;62504;46.070;14.492;2023-08-20T10:54:05;28.60;99.90
64689;DHT22;62504;46.070;14.492;2023-08-20T10:56:44;28.70;99.90
64689;DHT22;62504;46.070;14.492;2023-08-20T10:59:17;28.70;99.90
64689;DHT22;62504;46.070;14.492;2023-08-20T11:01:48;28.60;99.90
64689;DHT22;62504;46.070;14.492;2023-08-20T11:04:15;28.60;99.90
64689;DHT22;62504;46.070;14.492;2023-08-20T11:06:42;28.80;99.90
64689;DHT22;62504;46.070;14.492;2023-08-20T11:09:08;28.70;99.90
64689;DHT22;62504;46.070;14.492;2023-08-20T11:11:34;28.60;99.90
64689;DHT22;62504;46.070;14.492;2023-08-20T11:14:07;28.50;99.90
64689;DHT22;62504;46.070;14.492;2023-08-20T11:16:36;28.50;99.90
64689;DHT22;62504;46.070;14.492;2023-08-20T11:19:03;28.80;99.90
64689;DHT22;62504;46.070;14.492;2023-08-20T11:21:32;28.70;99.90
64689;DHT22;62504;46.070;14.492;2023-08-20T11:24:00;28.60;99.90
64689;DHT22;62504;46.070;14.492;2023-08-20T11:26:26;28.70;99.90
64689;DHT22;62504;46.070;14.492;2023-08-20T11:28:52;28.80;99.90
64689;DHT22;62504;46.070;14.492;2023-08-20T11:31:18;28.60;99.90
64689;DHT22;62504;46.070;14.492;2023-08-20T11:33:44;28.60;99.90
64689;DHT22;62504;46.070;14.492;2023-08-20T11:36:10;28.80;99.90
64689;DHT22;62504;46.070;14.492;2023-08-20T11:38:36;28.90;99.90
64689;DHT22;62504;46.070;14.492;2023-08-20T11:41:01;28.90;99.90
64689;DHT22;62504;46.070;14.492;2023-08-20T11:43:28;28.90;99.90
64689;DHT22;62504;46.070;14.492;2023-08-20T11:45:54;28.90;99.90
64689;DHT22;62504;46.070;14.492;2023-08-20T11:48:20;28.90;99.90
64689;DHT22;62504;46.070;14.492;2023-08-20T11:50:52;28.70;99.90
64689;DHT22;62504;46.070;14.492;2023-08-20T11:53:21;28.70;99.90
64689;DHT22;62504;46.070;14.492;2023-08-20T11:55:50;28.60;99.90
64689;DHT22;62504;46.070;14.492;2023-08-20T11:58:18;28.70;99.90
64689;DHT22;62504;46.070;14.492;2023-08-20T12:00:48;28.80;99.90
64689;DHT22;62504;46.070;14.492;2023-08-20T12:03:15;28.80;99.90
64689;DHT22;62504;46.070;14.492;2023-08-20T12:05:44;28.80;99.90
64689;DHT22;62504;46.070;14.492;2023-08-20T12:08:15;28.70;99.90
64689;DHT22;62504;46.070;14.492;2023-08-20T12:10:42;28.90;99.90
64689;DHT22;62504;46.070;14.492;2023-08-20T12:13:08;29.10;99.90
64689;DHT22;62504;46.070;14.492;2023-08-20T12:15:34;29.00;99.90
64689;DHT22;62504;46.070;14.492;2023-08-20T12:18:04;29.00;99.90
64689;DHT22;62504;46.070;14.492;2023-08-20T12:20:34;29.10;99.90
64689;DHT22;62504;46.070;14.492;2023-08-20T12:23:05;29.10;99.90
64689;DHT22;62504;46.070;14.492;2023-08-20T12:25:32;29.10;99.90
64689;DHT22;62504;46.070;14.492;2023-08-20T12:27:59;29.00;99.90
64689;DHT22;62504;46.070;14.492;2023-08-20T12:30:25;29.10;99.90
64689;DHT22;62504;46.070;14.492;2023-08-20T12:32:51;29.10;99.90
64689;DHT22;62504;46.070;14.492;2023-08-20T12:35:17;29.20;99.90
64689;DHT22;62504;46.070;14.492;2023-08-20T12:37:43;29.30;99.90
64689;DHT22;62504;46.070;14.492;2023-08-20T12:40:10;29.20;99.90
64689;DHT22;62504;46.070;14.492;2023-08-20T12:42:38;29.30;99.90
64689;DHT22;62504;46.070;14.492;2023-08-20T12:45:05;29.20;99.90
64689;DHT22;62504;46.070;14.492;2023-08-20T12:47:32;29.30;99.90
64689;DHT22;62504;46.070;14.492;2023-08-20T12:49:57;29.30;99.90
64689;DHT22;62504;46.070;14.492;2023-08-20T12:52:23;29.20;99.90
64689;DHT22;62504;46.070;14.492;2023-08-20T12:54:48;29.30;99.90
64689;DHT22;62504;46.070;14.492;2023-08-20T12:57:15;29.30;99.90
64689;DHT22;62504;46.070;14.492;2023-08-20T12:59:40;29.20;99.90
64689;DHT22;62504;46.070;14.492;2023-08-20T13:02:06;29.20;99.90
64689;DHT22;62504;46.070;14.492;2023-08-20T13:04:32;29.30;99.90
64689;DHT22;62504;46.070;14.492;2023-08-20T13:06:58;29.30;99.90
64689;DHT22;62504;46.070;14.492;2023-08-20T13:09:24;29.30;99.90
64689;DHT22;62504;46.070;14.492;2023-08-20T13:11:53;29.30;99.90
64689;DHT22;62504;46.070;14.492;2023-08-20T13:14:21;29.30;99.90
64689;DHT22;62504;46.070;14.492;2023-08-20T13:16:47;29.30;99.90
64689;DHT22;62504;46.070;14.492;2023-08-20T13:19:13;29.30;99.90
64689;DHT22;62504;46.070;14.492;2023-08-20T13:21:39;29.30;99.90
64689;DHT22;62504;46.070;14.492;2023-08-20T13:24:05;29.40;99.90
64689;DHT22;62504;46.070;14.492;2023-08-20T13:26:31;29.40;99.90
64689;DHT22;62504;46.070;14.492;2023-08-20T13:28:57;29.40;99.90
64689;DHT22;62504;46.070;14.492;2023-08-20T13:31:22;29.40;99.90
64689;DHT22;62504;46.070;14.492;2023-08-20T13:33:48;29.30;99.90
64689;DHT22;62504;46.070;14.492;2023-08-20T13:36:15;29.30;99.90
64689;DHT22;62504;46.070;14.492;2023-08-20T13:38:41;29.40;99.90
64689;DHT22;62504;46.070;14.492;2023-08-20T13:41:07;29.30;99.90
64689;DHT22;62504;46.070;14.492;2023-08-20T13:43:32;29.30;99.90
64689;DHT22;62504;46.070;14.492;2023-08-20T13:45:58;29.30;99.90
64689;DHT22;62504;46.070;14.492;2023-08-20T13:48:24;29.30;99.90
64689;DHT22;62504;46.070;14.492;2023-08-20T13:50:50;29.30;99.90
64689;DHT22;62504;46.070;14.492;2023-08-20T13:53:15;29.30;99.90
64689;DHT22;62504;46.070;14.492;2023-08-20T13:55:41;29.30;99.90
64689;DHT22;62504;46.070;14.492;2023-08-20T13:58:07;29.30;99.90
64689;DHT22;62504;46.070;14.492;2023-08-20T14:00:32;29.30;99.90
64689;DHT22;62504;46.070;14.492;2023-08-20T14:02:58;29.20;99.90
64689;DHT22;62504;46.070;14.492;2023-08-20T14:05:24;29.10;99.90
64689;DHT22;62504;46.070;14.492;2023-08-20T14:07:50;29.20;99.90
64689;DHT22;62504;46.070;14.492;2023-08-20T14:10:15;29.20;99.90
64689;DHT22;62504;46.070;14.492;2023-08-20T14:12:41;29.20;99.90
64689;DHT22;62504;46.070;14.492;2023-08-20T14:15:08;29.20;99.90
64689;DHT22;62504;46.070;14.492;2023-08-20T14:17:33;29.10;99.90
64689;DHT22;62504;46.070;14.492;2023-08-20T14:19:59;29.20;99.90
64689;DHT22;62504;46.070;14.492;2023-08-20T14:22:25;29.10;99.90
64689;DHT22;62504;46.070;14.492;2023-08-20T14:24:51;29.20;99.90
64689;DHT22;62504;46.070;14.492;2023-08-20T14:27:17;29.20;99.90
64689;DHT22;62504;46.070;14.492;2023-08-20T14:29:43;29.20;99.90
64689;DHT22;62504;46.070;14.492;2023-08-20T14:32:08;29.30;99.90
64689;DHT22;62504;46.070;14.492;2023-08-20T14:34:34;29.30;99.90
64689;DHT22;62504;46.070;14.492;2023-08-20T14:37:00;29.30;99.90
64689;DHT22;62504;46.070;14.492;2023-08-20T14:39:25;29.40;99.90
64689;DHT22;62504;46.070;14.492;2023-08-20T14:41:51;29.30;99.90
64689;DHT22;62504;46.070;14.492;2023-08-20T14:44:17;29.20;99.90
64689;DHT22;62504;46.070;14.492;2023-08-20T14:46:42;29.20;99.90
64689;DHT22;62504;46.070;14.492;2023-08-20T14:49:08;29.10;99.90
64689;DHT22;62504;46.070;14.492;2023-08-20T14:51:34;29.40;99.90
64689;DHT22;62504;46.070;14.492;2023-08-20T14:54:00;29.30;99.90
64689;DHT22;62504;46.070;14.492;2023-08-20T14:56:26;29.30;99.90
64689;DHT22;62504;46.070;14.492;2023-08-20T14:58:51;29.40;99.90
64689;DHT22;62504;46.070;14.492;2023-08-20T15:01:17;29.40;99.90
64689;DHT22;62504;46.070;14.492;2023-08-20T15:03:43;29.40;99.90
64689;DHT22;62504;46.070;14.492;2023-08-20T15:06:09;29.40;99.90
64689;DHT22;62504;46.070;14.492;2023-08-20T15:08:34;29.30;99.90
64689;DHT22;62504;46.070;14.492;2023-08-20T15:11:01;29.40;99.90
64689;DHT22;62504;46.070;14.492;2023-08-20T15:13:31;29.30;99.90
64689;DHT22;62504;46.070;14.492;2023-08-20T15:15:57;29.30;99.90
64689;DHT22;62504;46.070;14.492;2023-08-20T15:18:24;29.30;99.90
64689;DHT22;62504;46.070;14.492;2023-08-20T15:20:56;29.30;99.90
64689;DHT22;62504;46.070;14.492;2023-08-20T15:23:23;29.30;99.90